createdAt,value
2018-12-08T11:23:31.633Z,49.16
2018-12-08T11:26:00.829Z,49.20
2018-12-08T11:28:29.951Z,49.92
2018-12-08T11:30:59.125Z,49.64
2018-12-08T11:33:28.334Z,48.88
2018-12-08T11:35:57.869Z,43.30
2018-12-08T11:38:27.052Z,40.41
2018-12-08T11:40:56.534Z,46.04
2018-12-08T11:43:26.017Z,45.79
2018-12-08T11:45:55.276Z,39.89
2018-12-08T11:48:24.512Z,42.20
2018-12-08T11:50:53.926Z,44.08
2018-12-08T11:53:23.090Z,43.93
2018-12-08T11:55:52.400Z,45.97
2018-12-08T11:58:21.575Z,46.64
2018-12-08T12:00:50.868Z,47.31
2018-12-08T12:03:20.020Z,47.46
2018-12-08T12:05:49.229Z,47.64
2018-12-08T12:08:18.357Z,47.58
2018-12-08T12:10:47.580Z,47.12
2018-12-08T12:13:16.739Z,47.29
2018-12-08T12:15:46.576Z,47.13
2018-12-08T12:18:15.919Z,47.68
2018-12-08T12:20:45.129Z,48.41
2018-12-08T12:23:14.353Z,48.14
2018-12-08T12:25:43.810Z,47.77
2018-12-08T12:28:13.045Z,48.34
2018-12-08T12:30:42.353Z,48.66
2018-12-08T12:33:11.555Z,48.86
2018-12-08T12:35:40.679Z,49.13
2018-12-08T12:38:09.831Z,50.02
2018-12-08T12:40:39.036Z,50.56
2018-12-08T12:43:08.203Z,50.58
2018-12-08T12:45:37.471Z,49.39
2018-12-08T12:48:06.662Z,49.92
2018-12-08T12:50:36.212Z,49.56
2018-12-08T12:53:05.440Z,50.41
2018-12-08T12:55:34.630Z,49.10
2018-12-08T12:58:04.064Z,48.89
2018-12-08T13:00:33.314Z,49.44
2018-12-08T13:03:02.613Z,49.32
2018-12-08T13:05:31.710Z,49.02
2018-12-08T13:08:00.956Z,47.87
2018-12-08T13:10:30.066Z,48.75
2018-12-08T13:12:59.192Z,48.84
2018-12-08T13:15:28.330Z,49.19
2018-12-08T13:17:57.493Z,48.45
2018-12-08T13:20:26.684Z,49.25
2018-12-08T13:22:55.862Z,48.81
2018-12-08T13:25:25.942Z,47.89
2018-12-08T13:27:55.250Z,48.31
2018-12-08T13:30:24.510Z,47.91
2018-12-08T13:32:53.710Z,48.38
2018-12-08T13:35:35.215Z,48.76
2018-12-08T13:38:04.285Z,37.77
2018-12-08T13:40:33.575Z,33.72
2018-12-08T13:43:02.919Z,38.72
2018-12-08T13:45:32.077Z,43.63
2018-12-08T13:48:01.284Z,48.29
2018-12-08T13:50:30.503Z,48.52
2018-12-08T13:52:59.745Z,49.57
2018-12-08T13:55:28.994Z,50.39
2018-12-08T13:58:01.236Z,50.41
2018-12-08T14:00:30.470Z,50.78
2018-12-08T14:02:59.641Z,50.73
2018-12-08T14:05:28.834Z,50.84
2018-12-08T14:07:58.096Z,50.05
2018-12-08T14:10:27.452Z,50.34
2018-12-08T14:12:56.882Z,50.64
2018-12-08T14:15:26.143Z,50.47
2018-12-08T14:17:55.436Z,51.46
2018-12-08T14:20:29.158Z,51.22
2018-12-08T14:22:58.538Z,51.26
2018-12-08T14:25:27.756Z,51.88
2018-12-08T14:27:57.194Z,52.28
2018-12-08T14:30:26.315Z,52.29
2018-12-08T14:32:55.741Z,52.42
2018-12-08T14:35:24.926Z,52.83
2018-12-08T14:37:54.127Z,52.18
2018-12-08T14:40:24.292Z,52.63
2018-12-08T14:42:53.447Z,52.91
2018-12-08T14:45:23.160Z,53.71
2018-12-08T14:47:52.576Z,54.06
2018-12-08T14:50:21.978Z,53.36
2018-12-08T14:52:51.130Z,53.68
2018-12-08T14:55:20.466Z,54.30
2018-12-08T14:57:49.668Z,54.57
2018-12-08T15:00:19.207Z,55.51
2018-12-08T15:02:48.362Z,55.88
2018-12-08T15:05:17.770Z,56.37
2018-12-08T15:07:46.954Z,56.14
2018-12-08T15:10:16.488Z,56.59
2018-12-08T15:12:45.703Z,56.37
2018-12-08T15:15:15.197Z,56.74
2018-12-08T15:17:44.388Z,57.26
2018-12-08T15:20:13.676Z,57.59
2018-12-08T15:22:42.782Z,57.30
2018-12-08T15:25:12.078Z,57.09
2018-12-08T15:27:41.291Z,57.96
2018-12-08T15:30:10.926Z,57.92
2018-12-08T15:32:40.272Z,57.71
2018-12-08T15:35:11.213Z,56.91
2018-12-08T15:37:40.751Z,57.09
2018-12-08T15:40:10.975Z,57.30
2018-12-08T15:42:40.618Z,57.60
2018-12-08T15:45:11.427Z,57.56
2018-12-08T15:47:40.631Z,57.51
2018-12-08T15:50:10.872Z,57.19
2018-12-08T15:52:40.099Z,57.56
2018-12-08T15:55:09.488Z,57.31
2018-12-08T15:57:38.803Z,58.06
2018-12-08T16:00:11.053Z,58.08
2018-12-08T16:02:40.425Z,57.48
2018-12-08T16:05:10.246Z,58.02
2018-12-08T16:07:39.621Z,57.93
2018-12-08T16:10:09.999Z,58.39
2018-12-08T16:12:39.297Z,58.43
2018-12-08T16:15:09.829Z,58.96
2018-12-08T16:17:39.030Z,58.55
2018-12-08T16:20:11.276Z,58.88
2018-12-08T16:22:40.594Z,58.30
2018-12-08T16:25:09.943Z,58.69
2018-12-08T16:27:39.309Z,58.50
2018-12-08T16:30:09.398Z,58.13
2018-12-08T16:32:38.699Z,58.49
2018-12-08T16:35:08.166Z,58.30
2018-12-08T16:37:37.421Z,58.57
2018-12-08T16:40:07.322Z,58.78
2018-12-08T16:42:36.814Z,58.33
2018-12-08T16:45:08.037Z,58.71
2018-12-08T16:47:37.311Z,58.63
2018-12-08T16:50:08.251Z,58.29
2018-12-08T16:52:37.502Z,58.97
2018-12-08T16:55:07.406Z,59.77
2018-12-08T16:57:36.537Z,60.22
2018-12-08T17:00:06.265Z,59.47
2018-12-08T17:02:35.626Z,59.66
2018-12-08T17:05:05.157Z,59.48
2018-12-08T17:07:34.401Z,59.55
2018-12-08T17:10:03.640Z,60.34
2018-12-08T17:12:32.742Z,60.14
2018-12-08T17:15:02.229Z,60.18
2018-12-08T17:17:31.298Z,60.42
2018-12-08T17:20:00.645Z,60.79
2018-12-08T17:22:29.803Z,60.89
2018-12-08T17:24:59.000Z,60.64
2018-12-08T17:27:28.096Z,60.90
2018-12-08T17:29:57.446Z,61.20
2018-12-08T17:32:26.718Z,61.94
2018-12-08T17:34:55.807Z,61.68
2018-12-08T17:37:24.934Z,61.72
2018-12-08T17:39:54.150Z,62.14
2018-12-08T17:42:23.346Z,61.78
2018-12-08T17:44:52.462Z,61.36
2018-12-08T17:47:21.578Z,62.14
2018-12-08T17:49:50.792Z,61.92
2018-12-08T17:52:20.013Z,61.74
2018-12-08T17:54:50.804Z,61.05
2018-12-08T17:57:19.890Z,60.75
2018-12-08T17:59:49.027Z,61.18
2018-12-08T18:02:18.124Z,61.39
2018-12-08T18:04:47.317Z,60.57
2018-12-08T18:07:16.458Z,60.99
2018-12-08T18:09:45.643Z,60.53
2018-12-08T18:12:14.851Z,60.87
2018-12-08T18:14:44.002Z,60.77
2018-12-08T18:17:13.239Z,60.39
2018-12-08T18:19:42.336Z,60.20
2018-12-08T18:22:11.588Z,59.94
2018-12-08T18:24:40.776Z,60.48
2018-12-08T18:27:09.995Z,60.26
2018-12-08T18:29:39.308Z,59.87
2018-12-08T18:32:08.629Z,59.62
2018-12-08T18:34:37.739Z,60.29
2018-12-08T18:37:06.851Z,59.48
2018-12-08T18:39:36.249Z,59.37
2018-12-08T18:42:05.470Z,59.47
2018-12-08T18:44:34.690Z,59.15
2018-12-08T18:47:03.888Z,59.26
2018-12-08T18:49:33.122Z,59.14
2018-12-08T18:52:02.371Z,57.80
2018-12-08T18:54:31.509Z,58.15
2018-12-08T18:57:00.672Z,57.66
2018-12-08T18:59:29.997Z,58.24
2018-12-08T19:01:59.126Z,57.84
2018-12-08T19:04:28.228Z,57.83
2018-12-08T19:06:57.552Z,57.34
2018-12-08T19:09:26.642Z,56.52
2018-12-08T19:11:57.005Z,56.89
2018-12-08T19:14:26.185Z,57.30
2018-12-08T19:16:55.442Z,57.59
2018-12-08T19:19:24.570Z,57.26
2018-12-08T19:21:53.690Z,57.34
2018-12-08T19:24:22.810Z,56.12
2018-12-08T19:26:52.013Z,56.67
2018-12-08T19:29:23.046Z,56.14
2018-12-08T19:31:52.342Z,56.40
2018-12-08T19:34:21.462Z,56.28
2018-12-08T19:36:50.573Z,56.84
2018-12-08T19:39:19.702Z,56.52
2018-12-08T19:41:48.816Z,56.39
2018-12-08T19:44:17.927Z,55.93
2018-12-08T19:46:47.026Z,56.09
2018-12-08T19:49:16.114Z,55.34
2018-12-08T19:51:45.241Z,55.55
2018-12-08T19:54:16.318Z,56.18
2018-12-08T19:56:45.435Z,56.25
2018-12-08T19:59:14.558Z,56.08
2018-12-08T20:01:43.761Z,55.98
2018-12-08T20:04:12.870Z,55.72
2018-12-08T20:06:42.334Z,55.75
2018-12-08T20:09:11.447Z,55.31
2018-12-08T20:11:41.655Z,55.73
2018-12-08T20:14:11.188Z,56.04
2018-12-08T20:16:40.330Z,56.28
2018-12-08T20:19:09.427Z,55.77
2018-12-08T20:21:38.655Z,56.53
2018-12-08T20:24:07.757Z,55.44
2018-12-08T20:26:36.855Z,56.14
2018-12-08T20:29:06.657Z,56.13
2018-12-08T20:31:35.972Z,55.63
2018-12-08T20:34:05.388Z,55.94
2018-12-08T20:36:34.697Z,56.54
2018-12-08T20:39:04.903Z,56.58
2018-12-08T20:41:34.020Z,55.83
2018-12-08T20:44:03.167Z,56.39
2018-12-08T20:46:32.263Z,55.60
2018-12-08T20:49:01.363Z,55.75
2018-12-08T20:51:30.489Z,55.91
2018-12-08T20:53:59.693Z,56.03
2018-12-08T20:56:28.907Z,56.25
2018-12-08T20:58:58.113Z,56.14
2018-12-08T21:01:27.265Z,55.59
2018-12-08T21:03:56.373Z,55.65
2018-12-08T21:06:26.504Z,56.04
2018-12-08T21:08:55.799Z,55.76
2018-12-08T21:11:24.889Z,56.48
2018-12-08T21:13:54.603Z,56.25
2018-12-08T21:16:23.798Z,55.87
2018-12-08T21:18:52.927Z,55.88
2018-12-08T21:21:22.044Z,55.71
2018-12-08T21:23:51.173Z,56.41
2018-12-08T21:26:20.367Z,56.40
2018-12-08T21:28:49.467Z,56.78
2018-12-08T21:31:18.596Z,57.71
2018-12-08T21:33:47.668Z,57.01
2018-12-08T21:36:16.874Z,56.77
2018-12-08T21:38:45.989Z,57.28
2018-12-08T21:41:15.104Z,57.08
2018-12-08T21:43:44.449Z,57.40
2018-12-08T21:46:14.268Z,56.93
2018-12-08T21:48:43.618Z,57.51
2018-12-08T21:51:12.723Z,56.50
2018-12-08T21:53:41.829Z,56.13
2018-12-08T21:56:10.946Z,56.27
2018-12-08T21:58:52.661Z,56.80
2018-12-08T22:01:22.604Z,57.08
2018-12-08T22:03:52.079Z,57.00
2018-12-08T22:06:21.225Z,57.26
2018-12-08T22:08:50.405Z,56.69
2018-12-08T22:11:19.663Z,56.81
2018-12-08T22:13:48.979Z,57.11
2018-12-08T22:16:18.149Z,57.49
2018-12-08T22:18:48.139Z,58.06
2018-12-08T22:21:17.226Z,57.73
2018-12-08T22:23:47.419Z,58.15
2018-12-08T22:26:16.552Z,57.78
2018-12-08T22:28:45.670Z,58.22
2018-12-08T22:31:17.911Z,59.49
2018-12-08T22:33:47.013Z,62.29
2018-12-08T22:36:17.333Z,63.00
2018-12-08T22:38:46.532Z,63.61
2018-12-08T22:41:15.671Z,63.37
2018-12-08T22:43:45.780Z,62.99
2018-12-08T22:46:15.146Z,62.55
2018-12-08T22:48:44.732Z,61.71
2018-12-08T22:51:15.781Z,61.63
2018-12-08T22:53:47.692Z,60.99
2018-12-08T22:56:16.954Z,61.71
2018-12-08T22:58:46.355Z,62.04
2018-12-08T23:01:15.542Z,61.61
2018-12-08T23:03:44.827Z,61.23
2018-12-08T23:06:14.780Z,61.57
2018-12-08T23:08:44.246Z,60.89
2018-12-08T23:11:13.443Z,61.53
2018-12-08T23:13:42.627Z,62.05
2018-12-08T23:16:12.920Z,61.67
2018-12-08T23:18:42.125Z,60.88
2018-12-08T23:21:11.488Z,61.81
2018-12-08T23:23:40.763Z,61.27
2018-12-08T23:26:09.897Z,61.61
2018-12-08T23:28:39.127Z,62.34
2018-12-08T23:31:09.037Z,62.00
2018-12-08T23:33:39.048Z,61.55
2018-12-08T23:36:08.408Z,62.21
2018-12-08T23:38:37.675Z,61.56
2018-12-08T23:41:06.505Z,62.20
2018-12-08T23:43:35.884Z,61.38
2018-12-08T23:46:06.235Z,61.63
2018-12-08T23:48:35.607Z,62.26
2018-12-08T23:51:04.735Z,63.85
2018-12-08T23:53:34.231Z,68.91
2018-12-08T23:56:03.682Z,70.36
2018-12-08T23:58:32.977Z,70.26
